sensor_id;sensor_type;location;lat;lon;timestamp;pressure;altitude;pressure_sealevel;temperature;humidity
72798;BME280;61084;55.816;37.036;2023-02-04T00:01:25;98929.41;;;1.60;70.34
72798;BME280;61084;55.816;37.036;2023-02-04T00:03:50;98932.06;;;1.58;70.37
72798;BME280;61084;55.816;37.036;2023-02-04T00:06:16;98932.06;;;1.58;70.02
72798;BME280;61084;55.816;37.036;2023-02-04T00:08:42;98933.78;;;1.58;70.29
72798;BME280;61084;55.816;37.036;2023-02-04T00:11:08;98944.13;;;1.58;69.90
72798;BME280;61084;55.816;37.036;2023-02-04T00:13:34;98936.38;;;1.58;70.38
72798;BME280;61084;55.816;37.036;2023-02-04T00:16:00;98938.09;;;1.57;70.11
72798;BME280;61084;55.816;37.036;2023-02-04T00:18:25;98943.28;;;1.57;69.91
72798;BME280;61084;55.816;37.036;2023-02-04T00:20:51;98943.28;;;1.57;69.98
72798;BME280;61084;55.816;37.036;2023-02-04T00:23:17;98943.28;;;1.57;69.94
72798;BME280;61084;55.816;37.036;2023-02-04T00:25:43;98957.97;;;1.57;69.81
72798;BME280;61084;55.816;37.036;2023-02-04T00:28:09;98952.78;;;1.57;70.27
72798;BME280;61084;55.816;37.036;2023-02-04T00:30:34;98953.66;;;1.56;69.85
72798;BME280;61084;55.816;37.036;2023-02-04T00:33:01;98951.13;;;1.54;69.95
72798;BME280;61084;55.816;37.036;2023-02-04T00:35:27;98954.53;;;1.54;70.02
72798;BME280;61084;55.816;37.036;2023-02-04T00:37:53;98962.28;;;1.56;70.26
72798;BME280;61084;55.816;37.036;2023-02-04T00:40:19;98963.16;;;1.55;70.06
72798;BME280;61084;55.816;37.036;2023-02-04T00:42:45;98964.88;;;1.54;70.35
72798;BME280;61084;55.816;37.036;2023-02-04T00:45:11;98967.47;;;1.54;70.07
72798;BME280;61084;55.816;37.036;2023-02-04T00:47:37;98971.81;;;1.54;70.17
72798;BME280;61084;55.816;37.036;2023-02-04T00:50:04;98970.91;;;1.55;70.36
72798;BME280;61084;55.816;37.036;2023-02-04T00:52:30;98972.63;;;1.54;70.33
72798;BME280;61084;55.816;37.036;2023-02-04T00:54:56;98976.94;;;1.56;70.17
72798;BME280;61084;55.816;37.036;2023-02-04T00:57:22;98970.03;;;1.56;69.90
72798;BME280;61084;55.816;37.036;2023-02-04T00:59:48;98973.47;;;1.57;69.96
72798;BME280;61084;55.816;37.036;2023-02-04T01:02:13;98976.94;;;1.56;69.92
72798;BME280;61084;55.816;37.036;2023-02-04T01:04:39;98981.28;;;1.53;69.92
72798;BME280;61084;55.816;37.036;2023-02-04T01:07:05;98982.16;;;1.54;70.31
72798;BME280;61084;55.816;37.036;2023-02-04T01:09:31;98985.66;;;1.51;69.86
72798;BME280;61084;55.816;37.036;2023-02-04T01:11:56;98974.50;;;1.49;70.46
72798;BME280;61084;55.816;37.036;2023-02-04T01:14:22;98992.56;;;1.51;70.09
72798;BME280;61084;55.816;37.036;2023-02-04T01:16:48;98984.75;;;1.52;70.17
72798;BME280;61084;55.816;37.036;2023-02-04T01:19:14;98992.56;;;1.51;70.42
72798;BME280;61084;55.816;37.036;2023-02-04T01:21:40;98989.97;;;1.51;70.35
72798;BME280;61084;55.816;37.036;2023-02-04T01:24:06;98991.69;;;1.52;70.04
72798;BME280;61084;55.816;37.036;2023-02-04T01:26:52;98995.16;;;1.51;70.41
72798;BME280;61084;55.816;37.036;2023-02-04T01:29:17;99001.97;;;1.53;70.32
72798;BME280;61084;55.816;37.036;2023-02-04T01:31:43;98997.66;;;1.54;70.42
72798;BME280;61084;55.816;37.036;2023-02-04T01:34:09;99002.78;;;1.56;70.02
72798;BME280;61084;55.816;37.036;2023-02-04T01:36:35;98997.66;;;1.54;70.32
72798;BME280;61084;55.816;37.036;2023-02-04T01:39:01;98995.16;;;1.51;70.37
72798;BME280;61084;55.816;37.036;2023-02-04T01:41:28;98995.94;;;1.53;70.10
72798;BME280;61084;55.816;37.036;2023-02-04T01:43:54;98999.41;;;1.53;70.00
72798;BME280;61084;55.816;37.036;2023-02-04T01:46:19;99002.78;;;1.56;69.87
72798;BME280;61084;55.816;37.036;2023-02-04T01:48:45;99007.09;;;1.55;69.94
72798;BME280;61084;55.816;37.036;2023-02-04T01:51:14;99010.59;;;1.54;70.15
72798;BME280;61084;55.816;37.036;2023-02-04T01:53:41;99010.59;;;1.54;69.82
72798;BME280;61084;55.816;37.036;2023-02-04T01:56:16;99015.78;;;1.52;70.12
72798;BME280;61084;55.816;37.036;2023-02-04T01:58:42;99020.13;;;1.52;69.77
72798;BME280;61084;55.816;37.036;2023-02-04T02:01:47;99015.81;;;1.51;70.03
72798;BME280;61084;55.816;37.036;2023-02-04T02:04:17;99022.78;;;1.49;69.68
72798;BME280;61084;55.816;37.036;2023-02-04T02:06:50;99019.38;;;1.47;69.99
72798;BME280;61084;55.816;37.036;2023-02-04T02:09:17;99029.66;;;1.48;69.83
72798;BME280;61084;55.816;37.036;2023-02-04T02:11:43;99035.75;;;1.46;69.94
72798;BME280;61084;55.816;37.036;2023-02-04T02:14:09;99036.63;;;1.46;70.13
72798;BME280;61084;55.816;37.036;2023-02-04T02:16:55;99034.06;;;1.45;70.01
72798;BME280;61084;55.816;37.036;2023-02-04T02:19:26;99035.84;;;1.43;69.73
72798;BME280;61084;55.816;37.036;2023-02-04T02:21:58;99042.78;;;1.41;69.61
72798;BME280;61084;55.816;37.036;2023-02-04T02:24:30;99044.56;;;1.39;69.55
72798;BME280;61084;55.816;37.036;2023-02-04T02:26:59;99050.59;;;1.38;69.63
72798;BME280;61084;55.816;37.036;2023-02-04T02:29:27;99054.13;;;1.34;69.67
72798;BME280;61084;55.816;37.036;2023-02-04T02:31:53;99052.41;;;1.33;69.36
72798;BME280;61084;55.816;37.036;2023-02-04T02:34:28;99053.38;;;1.29;69.51
72798;BME280;61084;55.816;37.036;2023-02-04T02:36:55;99060.31;;;1.27;69.69
72798;BME280;61084;55.816;37.036;2023-02-04T02:39:23;99063.00;;;1.24;69.60
72798;BME280;61084;55.816;37.036;2023-02-04T02:41:49;99061.31;;;1.21;69.44
72798;BME280;61084;55.816;37.036;2023-02-04T02:44:15;99060.44;;;1.21;69.69
72798;BME280;61084;55.816;37.036;2023-02-04T02:46:42;99066.47;;;1.21;69.93
72798;BME280;61084;55.816;37.036;2023-02-04T02:49:15;99058.72;;;1.21;69.61
72798;BME280;61084;55.816;37.036;2023-02-04T02:51:42;99060.41;;;1.22;69.81
72798;BME280;61084;55.816;37.036;2023-02-04T02:54:18;99054.47;;;1.19;69.94
72798;BME280;61084;55.816;37.036;2023-02-04T02:56:46;99050.13;;;1.21;69.56
72798;BME280;61084;55.816;37.036;2023-02-04T02:59:16;99042.50;;;1.13;69.53
72798;BME280;61084;55.816;37.036;2023-02-04T03:01:44;99043.53;;;1.06;69.50
72798;BME280;61084;55.816;37.036;2023-02-04T03:04:11;99042.78;;;1.01;69.68
72798;BME280;61084;55.816;37.036;2023-02-04T03:06:37;99038.53;;;0.99;69.87
72798;BME280;61084;55.816;37.036;2023-02-04T03:09:03;99038.69;;;0.90;69.91
72798;BME280;61084;55.816;37.036;2023-02-04T03:11:29;99046.53;;;0.87;70.30
72798;BME280;61084;55.816;37.036;2023-02-04T03:13:58;99043.19;;;0.82;70.35
72798;BME280;61084;55.816;37.036;2023-02-04T03:16:30;99063.78;;;0.85;70.39
72798;BME280;61084;55.816;37.036;2023-02-04T03:19:00;99068.91;;;0.86;70.10
72798;BME280;61084;55.816;37.036;2023-02-04T03:21:27;99062.94;;;0.84;70.51
72798;BME280;61084;55.816;37.036;2023-02-04T03:23:53;99075.84;;;0.84;70.52
72798;BME280;61084;55.816;37.036;2023-02-04T03:26:24;99075.81;;;0.86;70.37
72798;BME280;61084;55.816;37.036;2023-02-04T03:28:49;99072.31;;;0.88;70.36
72798;BME280;61084;55.816;37.036;2023-02-04T03:31:15;99080.03;;;0.90;70.27
72798;BME280;61084;55.816;37.036;2023-02-04T03:33:41;99093.00;;;0.88;70.25
72798;BME280;61084;55.816;37.036;2023-02-04T03:36:08;99090.38;;;0.90;70.19
72798;BME280;61084;55.816;37.036;2023-02-04T03:38:33;99084.41;;;0.86;69.91
72798;BME280;61084;55.816;37.036;2023-02-04T03:41:00;99087.16;;;0.77;69.61
72798;BME280;61084;55.816;37.036;2023-02-04T03:43:25;99095.81;;;0.74;69.82
72798;BME280;61084;55.816;37.036;2023-02-04T03:45:51;99099.25;;;0.75;70.02
72798;BME280;61084;55.816;37.036;2023-02-04T03:48:17;99102.72;;;0.75;70.28
72798;BME280;61084;55.816;37.036;2023-02-04T03:50:43;99109.59;;;0.75;70.03
72798;BME280;61084;55.816;37.036;2023-02-04T03:53:09;99106.97;;;0.76;70.10
72798;BME280;61084;55.816;37.036;2023-02-04T03:55:35;99103.56;;;0.76;69.90
72798;BME280;61084;55.816;37.036;2023-02-04T03:58:01;99113.00;;;0.77;69.69
72798;BME280;61084;55.816;37.036;2023-02-04T04:00:28;99112.13;;;0.76;69.95
72798;BME280;61084;55.816;37.036;2023-02-04T04:02:54;99119.06;;;0.74;69.55
72798;BME280;61084;55.816;37.036;2023-02-04T04:05:21;99113.94;;;0.73;70.00
72798;BME280;61084;55.816;37.036;2023-02-04T04:07:47;99110.56;;;0.69;69.45
72798;BME280;61084;55.816;37.036;2023-02-04T04:10:13;99116.59;;;0.68;69.60
72798;BME280;61084;55.816;37.036;2023-02-04T04:12:39;99114.06;;;0.67;69.51
72798;BME280;61084;55.816;37.036;2023-02-04T04:15:05;99113.31;;;0.60;69.34
72798;BME280;61084;55.816;37.036;2023-02-04T04:17:31;99111.63;;;0.58;69.45
72798;BME280;61084;55.816;37.036;2023-02-04T04:19:57;99109.09;;;0.55;69.20
72798;BME280;61084;55.816;37.036;2023-02-04T04:22:23;99117.69;;;0.55;69.61
72798;BME280;61084;55.816;37.036;2023-02-04T04:24:49;99122.09;;;0.50;69.06
72798;BME280;61084;55.816;37.036;2023-02-04T04:27:14;99113.59;;;0.44;69.51
72798;BME280;61084;55.816;37.036;2023-02-04T04:29:40;99124.78;;;0.44;69.50
72798;BME280;61084;55.816;37.036;2023-02-04T04:32:06;99120.50;;;0.42;69.56
72798;BME280;61084;55.816;37.036;2023-02-04T04:34:34;99139.44;;;0.42;69.48
72798;BME280;61084;55.816;37.036;2023-02-04T04:37:01;99136.00;;;0.42;69.63
72798;BME280;61084;55.816;37.036;2023-02-04T04:39:27;99140.34;;;0.40;69.21
72798;BME280;61084;55.816;37.036;2023-02-04T04:41:52;99144.69;;;0.38;69.71
72798;BME280;61084;55.816;37.036;2023-02-04T04:44:18;99149.84;;;0.38;69.31
72798;BME280;61084;55.816;37.036;2023-02-04T04:46:44;99155.06;;;0.35;69.03
72798;BME280;61084;55.816;37.036;2023-02-04T04:49:10;99159.44;;;0.30;69.17
72798;BME280;61084;55.816;37.036;2023-02-04T04:51:35;99157.75;;;0.27;68.81
72798;BME280;61084;55.816;37.036;2023-02-04T04:54:01;99166.44;;;0.23;68.37
72798;BME280;61084;55.816;37.036;2023-02-04T04:56:27;99169.94;;;0.19;68.36
72798;BME280;61084;55.816;37.036;2023-02-04T04:58:53;99171.69;;;0.16;68.50
72798;BME280;61084;55.816;37.036;2023-02-04T05:01:18;99175.19;;;0.12;68.59
72798;BME280;61084;55.816;37.036;2023-02-04T05:03:47;99183.00;;;0.07;68.23
72798;BME280;61084;55.816;37.036;2023-02-04T05:06:13;99184.81;;;0.02;68.21
72798;BME280;61084;55.816;37.036;2023-02-04T05:08:39;99187.41;;;0.00;68.55
72798;BME280;61084;55.816;37.036;2023-02-04T05:11:05;99195.13;;;0.00;68.46
72798;BME280;61084;55.816;37.036;2023-02-04T05:13:30;99204.63;;;0.00;68.69
72798;BME280;61084;55.816;37.036;2023-02-04T05:15:56;99200.28;;;0.00;68.24
72798;BME280;61084;55.816;37.036;2023-02-04T05:18:22;99193.47;;;-0.04;68.43
72798;BME280;61084;55.816;37.036;2023-02-04T05:20:48;99199.53;;;-0.05;68.06
72798;BME280;61084;55.816;37.036;2023-02-04T05:23:14;99203.84;;;-0.07;68.43
72798;BME280;61084;55.816;37.036;2023-02-04T05:25:41;99205.59;;;-0.10;68.46
72798;BME280;61084;55.816;37.036;2023-02-04T05:28:07;99199.59;;;-0.11;68.55
72798;BME280;61084;55.816;37.036;2023-02-04T05:30:33;99195.31;;;-0.12;68.38
72798;BME280;61084;55.816;37.036;2023-02-04T05:32:59;99204.81;;;-0.14;68.39
72798;BME280;61084;55.816;37.036;2023-02-04T05:35:24;99203.06;;;-0.12;68.42
72798;BME280;61084;55.816;37.036;2023-02-04T05:37:50;99209.00;;;-0.08;68.98
72798;BME280;61084;55.816;37.036;2023-02-04T05:40:16;99219.38;;;-0.10;69.00
72798;BME280;61084;55.816;37.036;2023-02-04T05:42:42;99221.97;;;-0.11;69.14
72798;BME280;61084;55.816;37.036;2023-02-04T05:45:14;99217.66;;;-0.12;68.74
72798;BME280;61084;55.816;37.036;2023-02-04T05:47:40;99211.66;;;-0.13;68.99
72798;BME280;61084;55.816;37.036;2023-02-04T05:50:06;99217.63;;;-0.11;69.17
72798;BME280;61084;55.816;37.036;2023-02-04T05:52:32;99221.97;;;-0.11;69.04
72798;BME280;61084;55.816;37.036;2023-02-04T05:54:58;99230.56;;;-0.12;69.10
72798;BME280;61084;55.816;37.036;2023-02-04T05:57:24;99238.34;;;-0.14;69.01
72798;BME280;61084;55.816;37.036;2023-02-04T05:59:49;99234.06;;;-0.16;68.68
72798;BME280;61084;55.816;37.036;2023-02-04T06:02:15;99240.94;;;-0.17;68.92
72798;BME280;61084;55.816;37.036;2023-02-04T06:04:41;99236.66;;;-0.19;69.08
72798;BME280;61084;55.816;37.036;2023-02-04T06:07:07;99246.16;;;-0.20;68.94
72798;BME280;61084;55.816;37.036;2023-02-04T06:09:32;99253.03;;;-0.20;69.20
72798;BME280;61084;55.816;37.036;2023-02-04T06:11:58;99241.84;;;-0.21;69.41
72798;BME280;61084;55.816;37.036;2023-02-04T06:14:24;99253.03;;;-0.20;69.24
72798;BME280;61084;55.816;37.036;2023-02-04T06:16:49;99256.50;;;-0.23;68.78
72798;BME280;61084;55.816;37.036;2023-02-04T06:19:15;99262.47;;;-0.19;69.18
72798;BME280;61084;55.816;37.036;2023-02-04T06:21:41;99263.34;;;-0.20;69.13
72798;BME280;61084;55.816;37.036;2023-02-04T06:24:07;99269.38;;;-0.20;68.89
72798;BME280;61084;55.816;37.036;2023-02-04T06:26:32;99270.19;;;-0.19;68.86
72798;BME280;61084;55.816;37.036;2023-02-04T06:28:58;99276.22;;;-0.19;69.41
72798;BME280;61084;55.816;37.036;2023-02-04T06:31:24;99288.19;;;-0.15;69.11
72798;BME280;61084;55.816;37.036;2023-02-04T06:33:50;99282.19;;;-0.14;69.32
72798;BME280;61084;55.816;37.036;2023-02-04T06:36:16;99289.00;;;-0.10;69.16
72798;BME280;61084;55.816;37.036;2023-02-04T06:38:41;99293.25;;;-0.06;69.50
72798;BME280;61084;55.816;37.036;2023-02-04T06:41:07;99290.66;;;-0.06;69.78
72798;BME280;61084;55.816;37.036;2023-02-04T06:43:33;99296.66;;;-0.04;69.91
72798;BME280;61084;55.816;37.036;2023-02-04T06:45:59;99294.84;;;0.03;69.86
72798;BME280;61084;55.816;37.036;2023-02-04T06:48:24;99305.97;;;0.08;70.10
72798;BME280;61084;55.816;37.036;2023-02-04T06:50:50;99299.00;;;0.13;69.78
72798;BME280;61084;55.816;37.036;2023-02-04T06:53:16;99304.13;;;0.18;69.62
72798;BME280;61084;55.816;37.036;2023-02-04T06:55:42;99301.53;;;0.19;69.40
72798;BME280;61084;55.816;37.036;2023-02-04T06:58:08;99299.78;;;0.20;69.52
72798;BME280;61084;55.816;37.036;2023-02-04T07:00:34;99306.66;;;0.21;69.65
72798;BME280;61084;55.816;37.036;2023-02-04T07:03:00;99308.31;;;0.26;69.37
72798;BME280;61084;55.816;37.036;2023-02-04T07:05:25;99312.59;;;0.27;69.48
72798;BME280;61084;55.816;37.036;2023-02-04T07:07:51;99317.72;;;0.29;69.23
72798;BME280;61084;55.816;37.036;2023-02-04T07:10:17;99311.66;;;0.33;69.63
72798;BME280;61084;55.816;37.036;2023-02-04T07:12:45;99321.91;;;0.37;69.46
72798;BME280;61084;55.816;37.036;2023-02-04T07:15:11;99317.56;;;0.42;69.59
72798;BME280;61084;55.816;37.036;2023-02-04T07:17:37;99326.97;;;0.46;69.83
72798;BME280;61084;55.816;37.036;2023-02-04T07:20:03;99328.66;;;0.49;69.89
72798;BME280;61084;55.816;37.036;2023-02-04T07:22:29;99332.00;;;0.55;69.85
72798;BME280;61084;55.816;37.036;2023-02-04T07:24:55;99331.13;;;0.55;69.92
72798;BME280;61084;55.816;37.036;2023-02-04T07:27:21;99331.06;;;0.59;69.73
72798;BME280;61084;55.816;37.036;2023-02-04T07:29:47;99325.81;;;0.67;70.06
72798;BME280;61084;55.816;37.036;2023-02-04T07:32:13;99331.75;;;0.73;69.56
72798;BME280;61084;55.816;37.036;2023-02-04T07:34:38;99326.53;;;0.75;69.91
72798;BME280;61084;55.816;37.036;2023-02-04T07:37:04;99332.50;;;0.78;69.67
72798;BME280;61084;55.816;37.036;2023-02-04T07:39:30;99331.69;;;0.78;70.09
72798;BME280;61084;55.816;37.036;2023-02-04T07:41:56;99334.19;;;0.81;69.95
72798;BME280;61084;55.816;37.036;2023-02-04T07:44:30;99338.44;;;0.85;69.80
72798;BME280;61084;55.816;37.036;2023-02-04T07:46:55;99336.69;;;0.89;69.58
72798;BME280;61084;55.816;37.036;2023-02-04T07:49:22;99347.03;;;0.86;69.76
72798;BME280;61084;55.816;37.036;2023-02-04T07:51:47;99346.16;;;0.88;69.74
72798;BME280;61084;55.816;37.036;2023-02-04T07:54:13;99352.19;;;0.89;69.54
72798;BME280;61084;55.816;37.036;2023-02-04T07:56:39;99350.34;;;0.94;69.59
72798;BME280;61084;55.816;37.036;2023-02-04T07:59:05;99363.22;;;0.98;69.85
72798;BME280;61084;55.816;37.036;2023-02-04T08:01:30;99356.28;;;1.00;69.78
72798;BME280;61084;55.816;37.036;2023-02-04T08:03:56;99357.16;;;1.02;69.50
72798;BME280;61084;55.816;37.036;2023-02-04T08:06:22;99360.53;;;1.06;69.63
72798;BME280;61084;55.816;37.036;2023-02-04T08:08:48;99355.25;;;1.12;69.88
72798;BME280;61084;55.816;37.036;2023-02-04T08:11:13;99359.47;;;1.17;69.88
72798;BME280;61084;55.816;37.036;2023-02-04T08:13:39;99359.38;;;1.23;69.89
72798;BME280;61084;55.816;37.036;2023-02-04T08:16:05;99358.44;;;1.27;69.56
72798;BME280;61084;55.816;37.036;2023-02-04T08:18:31;99364.41;;;1.31;69.58
72798;BME280;61084;55.816;37.036;2023-02-04T08:20:57;99360.97;;;1.32;69.40
72798;BME280;61084;55.816;37.036;2023-02-04T08:23:23;99360.13;;;1.30;69.40
72798;BME280;61084;55.816;37.036;2023-02-04T08:25:49;99367.06;;;1.26;69.76
72798;BME280;61084;55.816;37.036;2023-02-04T08:28:15;99373.06;;;1.30;69.49
72798;BME280;61084;55.816;37.036;2023-02-04T08:30:41;99366.97;;;1.34;69.48
72798;BME280;61084;55.816;37.036;2023-02-04T08:33:07;99369.47;;;1.38;69.62
72798;BME280;61084;55.816;37.036;2023-02-04T08:35:33;99366.78;;;1.44;69.66
72798;BME280;61084;55.816;37.036;2023-02-04T08:37:58;99368.41;;;1.50;69.54
72798;BME280;61084;55.816;37.036;2023-02-04T08:40:24;99371.75;;;1.57;69.56
72798;BME280;61084;55.816;37.036;2023-02-04T08:42:50;99365.56;;;1.64;69.83
72798;BME280;61084;55.816;37.036;2023-02-04T08:45:15;99379.16;;;1.75;69.52
72798;BME280;61084;55.816;37.036;2023-02-04T08:47:41;99379.91;;;1.81;69.52
72798;BME280;61084;55.816;37.036;2023-02-04T08:50:09;99378.09;;;1.86;69.35
72798;BME280;61084;55.816;37.036;2023-02-04T08:52:35;99383.16;;;1.92;69.65
72798;BME280;61084;55.816;37.036;2023-02-04T08:55:01;99385.69;;;1.94;69.06
72798;BME280;61084;55.816;37.036;2023-02-04T08:57:28;99387.50;;;1.90;68.86
72798;BME280;61084;55.816;37.036;2023-02-04T08:59:54;99383.19;;;1.91;68.87
72798;BME280;61084;55.816;37.036;2023-02-04T09:02:20;99389.97;;;1.96;69.23
72798;BME280;61084;55.816;37.036;2023-02-04T09:04:46;99381.31;;;1.99;69.24
72798;BME280;61084;55.816;37.036;2023-02-04T09:07:11;99391.63;;;2.00;68.81
72798;BME280;61084;55.816;37.036;2023-02-04T09:09:37;99389.84;;;2.02;68.79
72798;BME280;61084;55.816;37.036;2023-02-04T09:12:03;99391.47;;;2.08;69.27
72798;BME280;61084;55.816;37.036;2023-02-04T09:14:29;99396.72;;;2.05;69.17
72798;BME280;61084;55.816;37.036;2023-02-04T09:16:55;99401.06;;;2.04;69.14
72798;BME280;61084;55.816;37.036;2023-02-04T09:19:20;99401.75;;;2.12;68.82
72798;BME280;61084;55.816;37.036;2023-02-04T09:21:52;99398.31;;;2.12;68.76
72798;BME280;61084;55.816;37.036;2023-02-04T09:24:17;99406.97;;;2.11;68.79
72798;BME280;61084;55.816;37.036;2023-02-04T09:26:43;99403.53;;;2.10;68.89
72798;BME280;61084;55.816;37.036;2023-02-04T09:29:09;99400.94;;;2.10;68.80
72798;BME280;61084;55.816;37.036;2023-02-04T09:31:35;99407.72;;;2.17;69.05
72798;BME280;61084;55.816;37.036;2023-02-04T09:34:01;99411.06;;;2.21;69.18
72798;BME280;61084;55.816;37.036;2023-02-04T09:36:27;99412.72;;;2.25;69.19
72798;BME280;61084;55.816;37.036;2023-02-04T09:38:55;99417.69;;;2.36;68.82
72798;BME280;61084;55.816;37.036;2023-02-04T09:41:21;99421.91;;;2.40;69.09
72798;BME280;61084;55.816;37.036;2023-02-04T09:43:47;99418.41;;;2.42;68.68
72798;BME280;61084;55.816;37.036;2023-02-04T09:46:23;99420.19;;;2.40;68.35
72798;BME280;61084;55.816;37.036;2023-02-04T09:48:53;99420.13;;;2.43;68.92
72798;BME280;61084;55.816;37.036;2023-02-04T09:51:32;99421.81;;;2.44;68.23
72798;BME280;61084;55.816;37.036;2023-02-04T09:54:07;99423.72;;;2.36;68.76
72798;BME280;61084;55.816;37.036;2023-02-04T09:56:36;99419.44;;;2.34;68.21
72798;BME280;61084;55.816;37.036;2023-02-04T09:59:13;99431.44;;;2.38;68.36
72798;BME280;61084;55.816;37.036;2023-02-04T10:01:40;99428.91;;;2.36;68.65
72798;BME280;61084;55.816;37.036;2023-02-04T10:04:10;99432.38;;;2.35;68.60
72798;BME280;61084;55.816;37.036;2023-02-04T10:06:37;99434.94;;;2.37;68.80
72798;BME280;61084;55.816;37.036;2023-02-04T10:09:03;99434.81;;;2.43;68.82
72798;BME280;61084;55.816;37.036;2023-02-04T10:11:32;99433.91;;;2.45;68.65
72798;BME280;61084;55.816;37.036;2023-02-04T10:14:00;99441.59;;;2.48;68.87
72798;BME280;61084;55.816;37.036;2023-02-04T10:16:31;99437.19;;;2.53;68.43
72798;BME280;61084;55.816;37.036;2023-02-04T10:19:00;99439.63;;;2.61;68.93
72798;BME280;61084;55.816;37.036;2023-02-04T10:21:32;99443.78;;;2.68;69.01
72798;BME280;61084;55.816;37.036;2023-02-04T10:24:02;99441.19;;;2.69;68.23
72798;BME280;61084;55.816;37.036;2023-02-04T10:26:30;99447.25;;;2.68;68.12
72798;BME280;61084;55.816;37.036;2023-02-04T10:29:03;99452.38;;;2.70;68.29
72798;BME280;61084;55.816;37.036;2023-02-04T10:31:34;99449.97;;;2.62;68.30
72798;BME280;61084;55.816;37.036;2023-02-04T10:36:48;99458.78;;;2.54;68.49
72798;BME280;61084;55.816;37.036;2023-02-04T10:41:48;99465.59;;;2.58;68.38
72798;BME280;61084;55.816;37.036;2023-02-04T10:44:17;99471.56;;;2.61;68.03
72798;BME280;61084;55.816;37.036;2023-02-04T10:46:43;99474.13;;;2.63;68.11
72798;BME280;61084;55.816;37.036;2023-02-04T10:49:23;99481.09;;;2.59;67.81
72798;BME280;61084;55.816;37.036;2023-02-04T10:51:50;99482.88;;;2.57;68.22
72798;BME280;61084;55.816;37.036;2023-02-04T10:54:19;99484.59;;;2.57;67.81
72798;BME280;61084;55.816;37.036;2023-02-04T10:56:58;99477.72;;;2.56;68.48
72798;BME280;61084;55.816;37.036;2023-02-04T10:59:26;99482.13;;;2.51;68.28
72798;BME280;61084;55.816;37.036;2023-02-04T11:01:56;99485.63;;;2.48;68.20
72798;BME280;61084;55.816;37.036;2023-02-04T11:04:23;99478.88;;;2.40;68.05
72798;BME280;61084;55.816;37.036;2023-02-04T11:06:50;99469.56;;;2.31;68.16
72798;BME280;61084;55.816;37.036;2023-02-04T11:09:17;99473.97;;;2.27;68.19
72798;BME280;61084;55.816;37.036;2023-02-04T11:11:50;99481.66;;;2.30;68.58
72798;BME280;61084;55.816;37.036;2023-02-04T11:14:42;99482.50;;;2.31;68.13
72798;BME280;61084;55.816;37.036;2023-02-04T11:17:19;99487.69;;;2.33;68.24
72798;BME280;61084;55.816;37.036;2023-02-04T11:19:45;99493.59;;;2.39;68.45
72798;BME280;61084;55.816;37.036;2023-02-04T11:22:35;99489.16;;;2.44;68.56
72798;BME280;61084;55.816;37.036;2023-02-04T11:25:35;99486.44;;;2.52;68.58
72798;BME280;61084;55.816;37.036;2023-02-04T11:28:24;99488.13;;;2.54;68.38
72798;BME280;61084;55.816;37.036;2023-02-04T11:33:47;99488.00;;;2.60;68.05
72798;BME280;61084;55.816;37.036;2023-02-04T11:36:15;99496.59;;;2.62;68.04
72798;BME280;61084;55.816;37.036;2023-02-04T11:38:46;99496.63;;;2.61;68.04
72798;BME280;61084;55.816;37.036;2023-02-04T11:41:27;99499.31;;;2.56;67.54
72798;BME280;61084;55.816;37.036;2023-02-04T11:43:54;99502.72;;;2.57;67.54
72798;BME280;61084;55.816;37.036;2023-02-04T11:46:22;99506.22;;;2.56;67.37
72798;BME280;61084;55.816;37.036;2023-02-04T11:48:55;99512.34;;;2.50;67.81
72798;BME280;61084;55.816;37.036;2023-02-04T11:51:30;99511.53;;;2.48;67.47
72798;BME280;61084;55.816;37.036;2023-02-04T11:53:57;99515.81;;;2.51;67.56
72798;BME280;61084;55.816;37.036;2023-02-04T11:56:27;99524.44;;;2.51;67.35
72798;BME280;61084;55.816;37.036;2023-02-04T11:58:55;99523.53;;;2.54;67.84
72798;BME280;61084;55.816;37.036;2023-02-04T12:01:24;99518.31;;;2.55;68.01
72798;BME280;61084;55.816;37.036;2023-02-04T12:04:23;99526.91;;;2.57;67.41
72798;BME280;61084;55.816;37.036;2023-02-04T12:07:01;99528.63;;;2.58;67.96
72798;BME280;61084;55.816;37.036;2023-02-04T12:09:29;99533.00;;;2.55;67.23
72798;BME280;61084;55.816;37.036;2023-02-04T12:12:00;99536.53;;;2.52;67.27
72798;BME280;61084;55.816;37.036;2023-02-04T12:14:33;99543.44;;;2.52;67.46
72798;BME280;61084;55.816;37.036;2023-02-04T12:17:00;99542.56;;;2.51;67.08
72798;BME280;61084;55.816;37.036;2023-02-04T12:19:26;99554.66;;;2.51;67.33
72798;BME280;61084;55.816;37.036;2023-02-04T12:21:52;99542.53;;;2.53;67.22
72798;BME280;61084;55.816;37.036;2023-02-04T12:24:20;99547.72;;;2.54;67.49
72798;BME280;61084;55.816;37.036;2023-02-04T12:26:46;99555.44;;;2.56;67.36
72798;BME280;61084;55.816;37.036;2023-02-04T12:29:11;99547.63;;;2.59;67.81
72798;BME280;61084;55.816;37.036;2023-02-04T12:31:37;99564.88;;;2.60;67.16
72798;BME280;61084;55.816;37.036;2023-02-04T12:34:03;99564.03;;;2.58;67.72
72798;BME280;61084;55.816;37.036;2023-02-04T12:36:29;99564.16;;;2.52;67.59
72798;BME280;61084;55.816;37.036;2023-02-04T12:38:55;99565.06;;;2.49;67.30
72798;BME280;61084;55.816;37.036;2023-02-04T12:41:23;99572.94;;;2.43;67.07
72798;BME280;61084;55.816;37.036;2023-02-04T12:43:49;99574.63;;;2.44;67.11
72798;BME280;61084;55.816;37.036;2023-02-04T12:46:16;99573.78;;;2.45;67.19
72798;BME280;61084;55.816;37.036;2023-02-04T12:48:42;99572.78;;;2.51;67.08
72798;BME280;61084;55.816;37.036;2023-02-04T12:51:08;99585.75;;;2.52;67.40
72798;BME280;61084;55.816;37.036;2023-02-04T12:53:34;99583.94;;;2.56;67.60
72798;BME280;61084;55.816;37.036;2023-02-04T12:56:00;99590.94;;;2.51;67.55
72798;BME280;61084;55.816;37.036;2023-02-04T12:58:26;99588.38;;;2.49;67.35
72798;BME280;61084;55.816;37.036;2023-02-04T13:00:52;99588.50;;;2.42;67.12
72798;BME280;61084;55.816;37.036;2023-02-04T13:03:17;99587.66;;;2.41;67.16
72798;BME280;61084;55.816;37.036;2023-02-04T13:05:43;99585.94;;;2.40;67.16
72798;BME280;61084;55.816;37.036;2023-02-04T13:08:09;99591.28;;;2.33;67.26
72798;BME280;61084;55.816;37.036;2023-02-04T13:10:35;99593.09;;;2.26;67.06